Sylvan Beach, Texas
Current Conditions -  °F | °C
As of 3:50 AM on Monday 22 Dec 2014 (Local Time) from KEFD Reporting Station
Haze Haze  
Wind Chill: 57°   Ceiling: 2500
Heat Index: 57°   Visibility: 2mi
Dew Point: 57°   Wind: 0mph
Humidity: 100%   Direction: NA
Pressure: 29.81"   Gusts: NA
Location:  29.6785°N, 95.0483°W
Report Text: KEFD 220950Z 00000KT 2SM BR SCT008 BKN025 14/14 A2981
Loading
Personal Weather Stations






























Interactive Weather Map New forecast layout! Learn more

10-Day Weather Forecast

Advertisements
Track Severe Weather on mobile